Time;durP1;ratioP1;P1;durP2;ratioP2;P2;SDS_P1;SDS_P2;PMS_P1;PMS_P2;Temp;Humidity;BMP_temperature;BMP_pressure;BME280_temperature;BME280_humidity;BME280_pressure;Samples;Min_cycle;Max_cycle;Signal;HPM_P1;HPM_P2
2021/04/08 00:00:45;;;;;;;3.93;2.03;;;19.10;26.70;;;;;;8464592;28;20104;-56
2021/04/08 00:04:46;;;;;;;2.47;1.97;;;19.10;26.80;;;;;;8460254;28;20043;-56
2021/04/08 00:08:47;;;;;;;3.03;1.70;;;19.10;26.80;;;;;;8458883;28;20060;-56
2021/04/08 00:12:47;;;;;;;4.47;1.97;;;19.00;26.70;;;;;;8459716;28;20486;-56
2021/04/08 00:16:48;;;;;;;2.47;1.70;;;19.10;26.80;;;;;;8464336;28;20046;-56
2021/04/08 00:20:48;;;;;;;2.97;1.90;;;19.00;26.80;;;;;;8457768;28;20036;-56
2021/04/08 00:24:49;;;;;;;2.27;1.80;;;19.00;26.80;;;;;;8459789;28;20084;-56
2021/04/08 00:28:49;;;;;;;2.30;1.80;;;19.00;26.80;;;;;;8459205;28;20033;-56
2021/04/08 00:32:50;;;;;;;5.03;2.03;;;18.90;26.70;;;;;;8458222;28;20032;-56
2021/04/08 00:36:50;;;;;;;3.20;1.50;;;18.90;26.70;;;;;;8463614;28;20047;-56
2021/04/08 00:40:51;;;;;;;3.60;1.97;;;18.90;26.80;;;;;;8459027;28;20463;-56
2021/04/08 00:44:52;;;;;;;3.33;1.80;;;18.90;26.80;;;;;;8457141;28;20039;-56
2021/04/08 00:48:52;;;;;;;2.20;1.77;;;18.80;26.70;;;;;;8458838;28;20126;-56
2021/04/08 00:52:58;;;;;;;2.60;1.73;;;18.80;27.20;;;;;;8463259;28;20407;-56
2021/04/08 00:56:59;;;;;;;3.50;2.00;;;18.80;26.80;;;;;;8457294;28;20047;-55
2021/04/08 01:01:00;;;;;;;3.05;1.75;;;18.80;26.90;;;;;;8459460;28;20044;-55
2021/04/08 01:05:01;;;;;;;3.33;2.20;;;18.80;26.90;;;;;;8458809;28;20430;-56
2021/04/08 01:09:04;;;;;;;;;;;18.70;26.80;;;;;;8458136;28;20028;-56
2021/04/08 01:13:08;;;;;;;;;;;18.70;26.80;;;;;;8463195;28;19998;-56
2021/04/08 01:17:20;;;;;;;2.60;1.70;;;18.70;26.80;;;;;;8459175;27;19919;-56
2021/04/08 01:21:35;;;;;;;2.30;1.58;;;18.60;26.80;;;;;;8456824;28;20387;-56
2021/04/08 01:26:11;;;;;;;1.58;1.48;;;18.60;26.80;;;;;;8457815;28;20514;-55
2021/04/08 01:30:30;;;;;;;2.75;1.73;;;18.60;26.80;;;;;;8456442;28;20046;-56
2021/04/08 01:34:35;;;;;;;2.30;1.75;;;18.60;26.80;;;;;;8468794;28;20065;-56
2021/04/08 01:38:40;;;;;;;2.85;1.90;;;18.60;26.80;;;;;;8463052;28;20418;-56
2021/04/08 01:42:44;;;;;;;2.97;1.90;;;18.50;26.80;;;;;;8485469;27;20080;-56
2021/04/08 01:47:00;;;;;;;2.63;1.75;;;18.50;26.80;;;;;;8486890;27;20032;-56
2021/04/08 01:51:03;;;;;;;2.53;1.63;;;18.50;26.80;;;;;;8462543;28;20040;-56
2021/04/08 01:55:04;;;;;;;2.30;1.67;;;18.60;26.80;;;;;;8468592;28;20097;-56
2021/04/08 01:59:05;;;;;;;4.32;1.85;;;18.60;26.70;;;;;;8464293;28;20038;-56
2021/04/08 02:03:08;;;;;;;1.80;1.50;;;18.60;26.70;;;;;;8462338;28;20032;-55
2021/04/08 02:07:10;;;;;;;2.38;1.70;;;18.50;26.70;;;;;;8464185;28;20032;-56
2021/04/08 02:11:14;;;;;;;3.95;1.67;;;18.60;26.80;;;;;;8468480;28;20055;-55
2021/04/08 02:15:18;;;;;;;2.85;1.40;;;18.50;26.70;;;;;;8463287;27;20046;-55
2021/04/08 02:19:20;;;;;;;2.70;1.90;;;18.60;26.70;;;;;;8463626;28;20388;-54
2021/04/08 02:23:23;;;;;;;2.95;1.70;;;18.50;26.70;;;;;;8461752;28;20032;-56
2021/04/08 02:27:23;;;;;;;3.00;1.90;;;18.50;26.60;;;;;;8463311;28;20521;-55
2021/04/08 02:31:25;;;;;;;4.53;2.20;;;18.50;26.60;;;;;;8467818;28;20040;-56
2021/04/08 02:35:25;;;;;;;3.10;1.80;;;18.50;26.70;;;;;;8461165;28;20048;-56
2021/04/08 02:39:26;;;;;;;2.07;1.70;;;18.50;26.70;;;;;;8462735;28;20047;-56
2021/04/08 02:43:27;;;;;;;2.17;1.60;;;18.50;26.70;;;;;;8462433;28;20034;-53
2021/04/08 02:47:27;;;;;;;3.43;1.70;;;18.40;26.70;;;;;;8465342;28;20042;-56
2021/04/08 02:51:50;;;;;;;2.93;1.80;;;18.40;26.70;;;;;;8462555;28;20395;-56
2021/04/08 02:56:02;;;;;;;2.50;1.70;;;18.30;26.70;;;;;;8462361;28;20048;-53
2021/04/08 03:00:09;;;;;;;2.50;2.00;;;18.30;26.70;;;;;;8460489;28;20054;-52
2021/04/08 03:04:13;;;;;;;2.85;1.80;;;18.30;26.70;;;;;;8461911;28;20434;-53
2021/04/08 03:08:18;;;;;;;2.17;1.52;;;18.30;26.80;;;;;;8466557;28;20216;-56
2021/04/08 03:12:20;;;;;;;3.28;1.80;;;18.20;26.80;;;;;;8461190;28;20076;-53
2021/04/08 03:16:24;;;;;;;2.72;1.70;;;18.20;26.80;;;;;;8461659;28;20084;-53
2021/04/08 03:20:26;;;;;;;2.45;1.50;;;18.20;26.80;;;;;;8459648;28;20051;-52
2021/04/08 03:24:28;;;;;;;1.73;1.40;;;18.20;26.80;;;;;;8461448;27;20058;-55
2021/04/08 03:28:31;;;;;;;4.20;2.03;;;18.20;26.80;;;;;;8465912;28;20552;-54
2021/04/08 03:32:31;;;;;;;2.05;1.42;;;18.20;26.80;;;;;;8459444;28;20059;-54
2021/04/08 03:36:32;;;;;;;3.10;1.50;;;18.20;26.80;;;;;;8461626;28;20368;-53
2021/04/08 03:40:33;;;;;;;3.80;1.70;;;18.10;26.80;;;;;;8461139;28;20361;-51
2021/04/08 03:44:34;;;;;;;2.72;1.50;;;18.10;26.80;;;;;;8463552;28;20127;-53
2021/04/08 03:48:35;;;;;;;3.27;1.67;;;18.10;26.80;;;;;;8460688;28;20031;-53
2021/04/08 03:52:38;;;;;;;2.45;1.77;;;18.10;26.80;;;;;;8460772;28;20028;-53
2021/04/08 03:56:47;;;;;;;1.75;1.33;;;18.10;26.80;;;;;;8468336;27;20471;-54
2021/04/08 04:00:48;;;;;;;1.92;1.67;;;18.10;26.80;;;;;;8492675;27;20122;-53
2021/04/08 04:04:49;;;;;;;2.73;1.60;;;18.00;26.80;;;;;;8464688;28;20023;-52
2021/04/08 04:08:50;;;;;;;2.60;1.70;;;18.00;26.80;;;;;;8458439;28;20059;-52
2021/04/08 04:12:51;;;;;;;3.87;1.87;;;18.00;26.90;;;;;;8459951;28;20035;-55
2021/04/08 04:16:55;;;;;;;2.70;1.35;;;18.10;26.90;;;;;;8460386;27;20043;-55
2021/04/08 04:20:55;;;;;;;2.60;1.60;;;18.20;26.90;;;;;;8462482;28;20387;-54
2021/04/08 04:24:56;;;;;;;2.83;1.73;;;18.20;26.70;;;;;;8459686;28;20119;-54
2021/04/08 04:28:56;;;;;;;2.60;1.70;;;18.30;26.70;;;;;;8459479;28;20031;-56
2021/04/08 04:32:57;;;;;;;3.20;1.60;;;18.40;26.70;;;;;;8457831;28;20514;-54
2021/04/08 04:36:57;;;;;;;1.70;1.50;;;18.50;26.70;;;;;;8463635;28;20095;-55
2021/04/08 04:40:58;;;;;;;1.93;1.50;;;18.50;26.60;;;;;;8459054;28;20027;-56
2021/04/08 04:44:58;;;;;;;1.97;1.57;;;18.50;26.60;;;;;;8458022;28;20376;-55
2021/04/08 04:49:00;;;;;;;2.20;1.60;;;18.60;26.60;;;;;;8471419;27;20035;-53
2021/04/08 04:53:00;;;;;;;2.92;1.67;;;18.60;26.60;;;;;;8489274;27;20028;-55
2021/04/08 04:57:01;;;;;;;3.10;1.50;;;18.60;26.60;;;;;;8461379;28;20547;-55
2021/04/08 05:01:01;;;;;;;2.23;1.47;;;18.60;27.00;;;;;;8458441;28;20031;-54
2021/04/08 05:05:03;;;;;;;2.27;1.40;;;18.70;26.50;;;;;;8474801;27;20035;-56
2021/04/08 05:09:03;;;;;;;2.42;1.73;;;18.70;26.50;;;;;;8482702;27;20024;-55
2021/04/08 05:13:04;;;;;;;2.03;1.30;;;18.70;26.50;;;;;;8463022;28;20044;-56
2021/04/08 05:17:05;;;;;;;1.87;1.30;;;18.70;26.50;;;;;;8457883;28;20063;-56
2021/04/08 05:21:06;;;;;;;2.60;1.50;;;18.80;26.50;;;;;;8456255;28;20399;-55
2021/04/08 05:25:07;;;;;;;;;;;18.80;26.60;;;;;;8458759;28;20442;-55
2021/04/08 05:29:08;;;;;;;1.70;1.33;;;18.80;26.50;;;;;;8457977;28;19908;-55
2021/04/08 05:33:09;;;;;;;2.33;1.30;;;18.80;26.60;;;;;;8460509;28;20035;-55
2021/04/08 05:37:09;;;;;;;3.25;1.77;;;18.80;26.50;;;;;;8458326;28;20056;-55
2021/04/08 05:41:10;;;;;;;2.90;1.87;;;18.80;26.50;;;;;;8457720;28;20484;-55
2021/04/08 05:45:12;;;;;;;3.10;1.60;;;18.90;26.50;;;;;;8456462;28;20063;-56
2021/04/08 05:49:13;;;;;;;1.70;1.30;;;18.90;26.50;;;;;;8462280;28;20530;-55
2021/04/08 05:53:13;;;;;;;1.83;1.30;;;18.90;26.50;;;;;;8485684;28;20122;-55
2021/04/08 05:57:14;;;;;;;1.73;1.43;;;18.90;26.50;;;;;;8470693;28;20135;-55
2021/04/08 06:01:14;;;;;;;2.70;1.70;;;18.90;26.50;;;;;;8457714;28;20039;-56
2021/04/08 06:05:15;;;;;;;1.50;1.40;;;19.00;26.50;;;;;;8460254;28;20036;-54
2021/04/08 06:09:16;;;;;;;3.78;2.00;;;19.00;26.50;;;;;;8457463;28;20503;-56
2021/04/08 06:13:16;;;;;;;2.37;1.57;;;19.00;26.50;;;;;;8457618;28;20043;-56
2021/04/08 06:17:17;;;;;;;1.60;1.50;;;19.00;26.50;;;;;;8456025;28;20407;-55
2021/04/08 06:21:18;;;;;;;3.03;1.70;;;19.00;26.40;;;;;;8464486;27;20046;-56
2021/04/08 06:25:19;;;;;;;1.87;1.60;;;19.10;26.40;;;;;;8467703;28;20034;-55
2021/04/08 06:29:20;;;;;;;2.97;1.77;;;19.20;26.30;;;;;;8462086;27;20031;-54
2021/04/08 06:33:20;;;;;;;3.53;1.77;;;19.30;26.30;;;;;;8478489;27;20545;-56
2021/04/08 06:37:39;;;;;;;2.00;1.47;;;19.30;26.10;;;;;;8475526;27;20067;-56
2021/04/08 06:41:41;;;;;;;2.70;1.58;;;19.40;26.10;;;;;;8465027;27;20032;-56
2021/04/08 06:45:46;;;;;;;;;;;19.50;25.90;;;;;;8463412;28;20063;-56
2021/04/08 06:49:51;;;;;;;1.73;1.30;;;19.60;25.80;;;;;;8462580;28;19912;-56
2021/04/08 06:53:52;;;;;;;3.28;1.50;;;19.80;25.70;;;;;;8460919;28;20474;-56
2021/04/08 06:57:54;;;;;;;2.65;1.42;;;19.80;25.60;;;;;;8465566;27;20035;-56
2021/04/08 07:01:55;;;;;;;;;;;19.80;25.60;;;;;;8501262;27;20039;-56
2021/04/08 07:05:55;;;;;;;2.23;1.53;;;19.80;25.60;;;;;;8467298;27;19912;-56
2021/04/08 07:09:56;;;;;;;3.90;1.53;;;19.80;25.50;;;;;;8462031;28;20035;-56
2021/04/08 07:13:56;;;;;;;2.87;2.00;;;19.90;25.50;;;;;;8461734;28;20036;-57
2021/04/08 07:17:58;;;;;;;2.30;1.43;;;19.80;25.50;;;;;;8464699;28;20555;-57
2021/04/08 07:22:00;;;;;;;;;;;19.80;25.60;;;;;;8462050;28;20042;-57
2021/04/08 07:26:10;;;;;;;1.65;1.20;;;19.70;25.70;;;;;;8483196;27;20338;-55
2021/04/08 07:30:12;;;;;;;2.30;1.40;;;19.60;25.80;;;;;;8479979;27;20036;-55
2021/04/08 07:34:12;;;;;;;2.65;1.48;;;19.60;25.80;;;;;;8461229;28;20122;-56
2021/04/08 07:38:13;;;;;;;3.38;1.45;;;19.60;25.70;;;;;;8465673;28;20062;-55
2021/04/08 07:42:19;;;;;;;2.37;1.37;;;19.60;25.70;;;;;;8459524;28;20662;-55
2021/04/08 07:46:32;;;;;;;2.08;1.33;;;19.50;25.70;;;;;;8460803;28;20042;-55
2021/04/08 07:50:35;;;;;;;1.73;1.40;;;19.50;25.70;;;;;;8458952;28;20422;-55
2021/04/08 07:54:36;;;;;;;3.47;1.23;;;19.40;25.70;;;;;;8465312;28;20575;-55
2021/04/08 07:58:37;;;;;;;2.20;1.50;;;19.30;25.80;;;;;;8460634;28;20040;-56
2021/04/08 08:02:39;;;;;;;1.80;1.40;;;19.30;25.90;;;;;;8459283;28;20032;-55
2021/04/08 08:06:40;;;;;;;3.03;1.52;;;19.30;25.90;;;;;;8460528;28;20547;-57
2021/04/08 08:10:55;;;;;;;1.90;1.57;;;19.20;25.90;;;;;;8459952;27;20092;-55
2021/04/08 08:15:16;;;;;;;1.98;1.30;;;19.20;25.90;;;;;;8463148;28;20094;-55
2021/04/08 08:19:20;;;;;;;2.03;1.13;;;19.20;26.00;;;;;;8491820;27;20031;-55
2021/04/08 08:23:33;;;;;;;1.92;1.23;;;19.10;25.90;;;;;;8468693;27;20041;-55
2021/04/08 08:27:38;;;;;;;3.28;1.40;;;19.10;26.00;;;;;;8459631;28;20048;-55
2021/04/08 08:31:40;;;;;;;1.60;1.25;;;19.10;26.00;;;;;;8459640;28;20024;-55
2021/04/08 08:35:40;;;;;;;4.00;1.30;;;19.10;26.00;;;;;;8462110;28;20040;-56
2021/04/08 08:39:44;;;;;;;1.97;1.40;;;19.10;26.00;;;;;;8459183;28;20034;-55
2021/04/08 08:43:44;;;;;;;3.72;1.55;;;19.10;26.00;;;;;;8476724;27;20059;-56
2021/04/08 08:47:46;;;;;;;1.67;1.20;;;19.10;26.00;;;;;;8481495;27;20126;-55
2021/04/08 08:51:49;;;;;;;2.75;1.30;;;19.10;26.00;;;;;;8463526;28;20055;-55
2021/04/08 08:55:52;;;;;;;1.58;1.40;;;19.10;26.00;;;;;;8459971;28;20047;-56
2021/04/08 08:59:53;;;;;;;2.38;1.40;;;19.10;26.00;;;;;;8456590;28;20124;-56
2021/04/08 09:03:54;;;;;;;2.22;2.03;;;19.00;26.00;;;;;;8458545;28;20099;-56
2021/04/08 09:08:00;;;;;;;1.95;1.15;;;19.00;26.00;;;;;;8461477;27;20056;-56
2021/04/08 09:12:04;;;;;;;2.05;1.35;;;19.00;26.00;;;;;;8495197;27;20397;-56
2021/04/08 09:16:14;;;;;;;2.33;1.38;;;19.00;26.00;;;;;;8462889;27;20040;-55
2021/04/08 09:20:17;;;;;;;1.92;1.30;;;19.00;26.00;;;;;;8457740;28;20047;-56
2021/04/08 09:24:20;;;;;;;1.83;1.23;;;19.00;26.00;;;;;;8456679;28;20085;-56
2021/04/08 09:28:21;;;;;;;3.05;1.30;;;19.00;26.00;;;;;;8458790;28;20039;-56
2021/04/08 09:32:30;;;;;;;1.95;1.48;;;19.00;26.10;;;;;;8426845;28;20067;-56
2021/04/08 09:36:41;;;;;;;3.05;1.30;;;18.90;26.40;;;;;;8450385;28;20422;-56
2021/04/08 09:40:45;;;;;;;2.00;1.40;;;19.00;26.00;;;;;;8457760;28;20032;-56
2021/04/08 09:44:45;;;;;;;1.70;1.10;;;19.00;26.10;;;;;;8456258;28;20118;-55
2021/04/08 09:48:52;;;;;;;2.40;1.07;;;19.00;26.00;;;;;;8462629;28;20054;-56
2021/04/08 09:52:56;;;;;;;1.63;1.30;;;19.00;26.00;;;;;;8491106;27;20175;-56
2021/04/08 09:56:57;;;;;;;1.80;1.30;;;19.00;26.00;;;;;;8473638;27;20470;-55
2021/04/08 10:01:07;;;;;;;1.83;1.57;;;19.00;26.00;;;;;;8476247;27;20027;-55
2021/04/08 10:05:12;;;;;;;1.75;1.25;;;19.00;26.00;;;;;;8494759;27;20036;-56
2021/04/08 10:09:15;;;;;;;1.98;1.27;;;19.00;26.00;;;;;;8466959;28;20039;-56
2021/04/08 10:13:30;;;;;;;1.88;1.20;;;19.00;26.00;;;;;;8464002;28;20499;-56
2021/04/08 10:17:38;;;;;;;1.88;1.27;;;19.00;26.00;;;;;;8461799;28;20051;-56
2021/04/08 10:21:39;;;;;;;1.88;1.13;;;19.00;25.90;;;;;;8474204;27;20309;-56
2021/04/08 10:25:40;;;;;;;2.83;1.30;;;19.00;25.90;;;;;;8496467;27;20027;-56
2021/04/08 10:29:41;;;;;;;1.50;1.30;;;19.00;26.00;;;;;;8500586;27;20126;-56
2021/04/08 10:33:42;;;;;;;1.52;0.90;;;19.00;26.00;;;;;;8471743;27;20031;-56
2021/04/08 10:37:42;;;;;;;2.67;1.33;;;19.00;26.00;;;;;;8463385;27;20056;-56
2021/04/08 10:42:12;;;;;;;1.47;1.13;;;19.00;26.00;;;;;;8461101;28;20023;-56
2021/04/08 10:46:19;;;;;;;1.52;1.33;;;18.90;25.90;;;;;;8467396;28;20035;-56
2021/04/08 10:50:20;;;;;;;1.42;1.15;;;19.00;26.00;;;;;;8463800;28;20484;-56
2021/04/08 10:54:26;;;;;;;3.10;1.30;;;19.00;26.00;;;;;;8486038;27;20035;-56
2021/04/08 10:58:28;;;;;;;1.83;1.35;;;19.00;26.00;;;;;;8481468;27;20027;-56
2021/04/08 11:02:30;;;;;;;1.58;1.20;;;19.00;26.00;;;;;;8460529;28;20028;-56
2021/04/08 11:06:32;;;;;;;2.63;1.08;;;19.00;26.00;;;;;;8465812;28;20039;-56
2021/04/08 11:10:33;;;;;;;1.90;1.20;;;19.00;26.00;;;;;;8462002;28;20495;-55
2021/04/08 11:14:34;;;;;;;1.50;1.13;;;19.00;26.00;;;;;;8460644;28;20035;-55
2021/04/08 11:18:35;;;;;;;2.77;1.30;;;19.00;26.40;;;;;;8461784;28;20069;-55
2021/04/08 11:22:42;;;;;;;1.63;1.20;;;19.00;26.00;;;;;;8466241;28;20276;-55
2021/04/08 11:26:50;;;;;;;1.35;1.02;;;19.00;26.00;;;;;;8463154;28;20376;-55
2021/04/08 11:30:51;;;;;;;1.15;0.85;;;19.10;26.00;;;;;;8461542;28;20043;-55
2021/04/08 11:34:57;;;;;;;1.30;0.90;;;19.10;26.00;;;;;;8461012;28;20396;-54
2021/04/08 11:39:09;;;;;;;1.60;1.00;;;19.10;25.90;;;;;;8459383;28;20027;-56
2021/04/08 11:43:30;;;;;;;2.20;1.05;;;19.10;25.90;;;;;;8465595;28;20125;-56
2021/04/08 11:47:30;;;;;;;0.97;0.87;;;19.10;25.90;;;;;;8461315;28;20047;-56
2021/04/08 11:51:31;;;;;;;1.67;1.10;;;19.10;25.90;;;;;;8461122;28;20498;-56
2021/04/08 11:55:38;;;;;;;1.35;1.05;;;19.10;26.00;;;;;;8460457;28;20114;-56
2021/04/08 11:59:38;;;;;;;1.23;1.10;;;19.10;26.00;;;;;;8462401;27;20035;-56
2021/04/08 12:03:41;;;;;;;1.77;0.90;;;19.00;26.00;;;;;;8498824;27;20418;-56
2021/04/08 12:07:44;;;;;;;1.63;1.17;;;19.10;26.50;;;;;;8457106;27;20082;-48
2021/04/08 12:11:55;;;;;;;5.25;1.75;;;19.10;25.90;;;;;;8454272;28;20568;-50
2021/04/08 12:15:56;;;;;;;38.85;7.68;;;19.00;25.50;;;;;;8459576;27;20054;-50
2021/04/08 12:20:19;;;;;;;24.17;5.00;;;18.70;23.10;;;;;;8460980;28;20032;-53
2021/04/08 12:24:19;;;;;;;18.20;3.33;;;18.50;23.20;;;;;;8450626;28;20452;-51
2021/04/08 12:28:23;;;;;;;38.20;6.60;;;18.40;22.80;;;;;;8459033;28;20051;-52
2021/04/08 12:32:30;;;;;;;23.80;5.35;;;18.30;23.20;;;;;;8456695;28;20067;-58
2021/04/08 12:36:31;;;;;;;30.17;5.93;;;18.20;22.80;;;;;;8464190;27;20441;-58
2021/04/08 12:40:32;;;;;;;23.93;5.13;;;18.20;23.50;;;;;;8497306;27;20062;-57
2021/04/08 12:44:32;;;;;;;24.87;4.73;;;18.30;24.20;;;;;;8438181;28;20036;-58
2021/04/08 12:48:33;;;;;;;29.73;5.33;;;18.40;24.20;;;;;;8458830;28;20035;-57
2021/04/08 12:52:33;;;;;;;26.63;4.53;;;18.60;24.20;;;;;;8459219;28;20460;-58
2021/04/08 12:56:34;;;;;;;24.43;4.30;;;18.70;24.20;;;;;;8457055;28;20039;-58
2021/04/08 13:00:35;;;;;;;21.90;4.27;;;18.80;24.20;;;;;;8463263;28;20036;-58
2021/04/08 13:04:35;;;;;;;18.63;4.80;;;18.90;24.20;;;;;;8458826;28;20059;-58
2021/04/08 13:08:36;;;;;;;19.27;4.57;;;18.90;24.30;;;;;;8457397;27;20066;-57
2021/04/08 13:12:37;;;;;;;16.13;3.92;;;19.00;24.30;;;;;;8458436;28;20039;-58
2021/04/08 13:16:37;;;;;;;15.43;3.43;;;19.10;24.30;;;;;;8462570;28;20581;-57
2021/04/08 13:20:38;;;;;;;22.30;4.40;;;19.10;24.30;;;;;;8456463;28;20138;-56
2021/04/08 13:24:39;;;;;;;17.00;3.47;;;19.10;24.30;;;;;;8458426;28;20381;-57
2021/04/08 13:28:39;;;;;;;21.93;4.20;;;19.20;24.40;;;;;;8457401;28;20046;-58
2021/04/08 13:32:40;;;;;;;21.07;4.40;;;19.20;24.50;;;;;;8460682;28;20391;-57
2021/04/08 13:36:40;;;;;;;13.37;3.57;;;19.20;24.60;;;;;;8457975;28;20044;-58
2021/04/08 13:40:41;;;;;;;15.03;3.27;;;19.20;24.60;;;;;;8458057;28;20032;-58
2021/04/08 13:44:42;;;;;;;19.10;3.37;;;19.20;24.70;;;;;;8456169;28;20035;-58
2021/04/08 13:48:43;;;;;;;15.10;3.03;;;19.20;24.70;;;;;;8458029;28;20548;-58
2021/04/08 13:52:44;;;;;;;;;;;19.20;24.70;;;;;;8462444;28;20035;-57
2021/04/08 13:56:45;;;;;;;15.27;3.42;;;19.20;24.70;;;;;;8454796;28;19927;-57
2021/04/08 14:00:45;;;;;;;14.80;3.03;;;19.20;25.20;;;;;;8457799;28;20054;-57
2021/04/08 14:04:46;;;;;;;15.00;3.30;;;19.20;24.80;;;;;;8457399;28;20066;-57
2021/04/08 14:08:46;;;;;;;15.13;3.30;;;19.20;24.80;;;;;;8460005;28;20096;-57
2021/04/08 14:12:47;;;;;;;14.37;2.53;;;19.20;24.80;;;;;;8457309;28;20042;-57
2021/04/08 14:16:47;;;;;;;9.93;3.07;;;19.20;24.90;;;;;;8457752;28;20050;-57
2021/04/08 14:20:48;;;;;;;12.00;3.00;;;19.20;24.80;;;;;;8455418;28;20061;-58
2021/04/08 14:24:49;;;;;;;12.13;2.63;;;19.30;24.90;;;;;;8457173;28;20066;-57
2021/04/08 14:28:49;;;;;;;14.73;2.60;;;19.20;24.90;;;;;;8461419;28;20032;-57
2021/04/08 14:32:50;;;;;;;13.23;2.97;;;19.20;24.90;;;;;;8455259;28;20027;-57
2021/04/08 14:36:50;;;;;;;7.17;2.07;;;19.20;25.00;;;;;;8456905;28;20385;-57
2021/04/08 14:40:51;;;;;;;10.67;2.33;;;19.20;25.00;;;;;;8459922;28;20031;-57
2021/04/08 14:44:52;;;;;;;9.97;2.67;;;19.20;25.00;;;;;;8465712;28;20035;-57
2021/04/08 14:48:52;;;;;;;12.50;2.70;;;19.20;25.00;;;;;;8490532;27;20031;-57
2021/04/08 14:52:54;;;;;;;13.00;3.00;;;19.20;25.00;;;;;;8477934;27;20048;-58
2021/04/08 14:56:54;;;;;;;8.45;2.50;;;19.20;25.10;;;;;;8460916;28;20111;-57
2021/04/08 15:00:55;;;;;;;5.67;2.20;;;19.20;25.10;;;;;;8466899;28;20031;-57
2021/04/08 15:04:56;;;;;;;13.73;2.77;;;19.20;25.10;;;;;;8462217;28;20079;-57
2021/04/08 15:08:57;;;;;;;9.48;2.00;;;19.20;25.20;;;;;;8460653;28;20032;-57
2021/04/08 15:12:58;;;;;;;9.87;2.37;;;19.20;25.20;;;;;;8462293;27;20502;-56
2021/04/08 15:16:58;;;;;;;5.95;2.33;;;19.20;25.20;;;;;;8461819;28;20039;-56
2021/04/08 15:21:00;;;;;;;9.10;2.30;;;19.30;25.20;;;;;;8464565;28;20030;-57
2021/04/08 15:25:00;;;;;;;8.98;2.47;;;19.30;25.10;;;;;;8461522;28;20544;-58
2021/04/08 15:29:01;;;;;;;11.27;2.43;;;19.40;25.10;;;;;;8461540;28;20035;-58
2021/04/08 15:33:02;;;;;;;12.20;2.13;;;19.40;25.10;;;;;;8459751;28;20055;-58
2021/04/08 15:37:02;;;;;;;8.77;2.33;;;19.50;25.10;;;;;;8465624;28;20583;-58
2021/04/08 15:41:03;;;;;;;9.87;1.90;;;19.50;25.10;;;;;;8461363;28;20039;-58
2021/04/08 15:45:04;;;;;;;7.82;2.10;;;19.60;25.10;;;;;;8459332;28;20054;-57
2021/04/08 15:49:05;;;;;;;8.73;2.30;;;19.60;25.10;;;;;;8460886;28;20032;-56
2021/04/08 15:53:06;;;;;;;3.87;1.60;;;19.60;25.10;;;;;;8464818;28;20032;-58
2021/04/08 15:57:06;;;;;;;4.90;1.83;;;19.60;25.10;;;;;;8459425;27;20134;-58
2021/04/08 16:01:07;;;;;;;7.17;1.90;;;19.70;25.10;;;;;;8460810;28;20088;-57
2021/04/08 16:05:08;;;;;;;6.00;2.03;;;19.70;25.10;;;;;;8460831;27;20036;-57
2021/04/08 16:09:09;;;;;;;;;;;19.70;25.10;;;;;;8459182;28;20036;-57
2021/04/08 16:13:09;;;;;;;8.30;1.88;;;19.70;25.00;;;;;;8464806;28;19938;-58
2021/04/08 16:17:10;;;;;;;8.77;2.50;;;19.80;25.10;;;;;;8460053;28;20048;-57
2021/04/08 16:21:11;;;;;;;10.10;3.07;;;19.80;25.10;;;;;;8458070;28;20027;-58
2021/04/08 16:25:11;;;;;;;10.03;3.63;;;19.80;25.00;;;;;;8462906;27;20451;-58
2021/04/08 16:29:13;;;;;;;8.45;2.97;;;19.80;25.10;;;;;;8451105;27;20077;-58
2021/04/08 16:33:15;;;;;;;11.75;3.33;;;19.80;25.10;;;;;;8443390;27;20464;-55
2021/04/08 16:37:15;;;;;;;11.65;2.92;;;19.80;25.10;;;;;;8440725;27;20055;-53
2021/04/08 16:41:16;;;;;;;8.67;2.30;;;19.90;25.10;;;;;;8454273;28;20084;-55
2021/04/08 16:45:17;;;;;;;9.97;3.33;;;19.90;25.10;;;;;;8458958;28;20031;-53
2021/04/08 16:49:18;;;;;;;8.68;3.00;;;19.90;25.10;;;;;;8462863;28;20373;-54
2021/04/08 16:53:19;;;;;;;8.20;3.00;;;19.90;25.10;;;;;;8481503;27;20035;-56
2021/04/08 16:57:20;;;;;;;7.47;2.40;;;20.00;25.10;;;;;;8473906;27;20048;-56
2021/04/08 17:01:20;;;;;;;5.73;2.43;;;20.00;25.10;;;;;;8458546;28;20476;-57
2021/04/08 17:05:21;;;;;;;7.33;2.63;;;20.00;25.10;;;;;;8460253;28;20118;-55
2021/04/08 17:09:22;;;;;;;7.17;2.20;;;20.00;25.10;;;;;;8457510;28;20084;-54
2021/04/08 17:13:22;;;;;;;7.03;2.67;;;20.00;25.10;;;;;;8458350;28;20066;-56
2021/04/08 17:17:23;;;;;;;6.60;2.77;;;20.00;25.10;;;;;;8456025;28;20080;-56
2021/04/08 17:21:24;;;;;;;6.30;2.55;;;20.10;25.10;;;;;;8443572;28;20111;-56
2021/04/08 17:25:25;;;;;;;5.37;2.27;;;20.00;25.00;;;;;;8456704;28;20048;-55
2021/04/08 17:29:25;;;;;;;6.63;2.22;;;20.10;25.10;;;;;;8456078;28;20061;-55
2021/04/08 17:33:26;;;;;;;7.23;2.83;;;20.10;25.10;;;;;;8457409;28;20035;-56
2021/04/08 17:37:27;;;;;;;7.30;3.47;;;20.10;25.10;;;;;;8457917;28;20066;-56
2021/04/08 17:41:28;;;;;;;6.68;3.15;;;20.10;25.10;;;;;;8460775;28;20396;-55
2021/04/08 17:45:28;;;;;;;6.73;3.37;;;20.10;25.10;;;;;;8458215;28;20055;-55
2021/04/08 17:49:29;;;;;;;7.17;2.80;;;20.10;25.10;;;;;;8457420;28;20487;-55
2021/04/08 17:53:30;;;;;;;5.37;2.90;;;20.10;25.10;;;;;;8455740;28;20028;-55
2021/04/08 17:57:32;;;;;;;8.40;2.80;;;20.10;25.10;;;;;;8461928;28;20118;-56
2021/04/08 18:01:33;;;;;;;6.65;2.78;;;20.10;25.10;;;;;;8457604;28;20119;-56
2021/04/08 18:05:33;;;;;;;7.63;3.13;;;20.10;25.10;;;;;;8455240;28;20491;-55
2021/04/08 18:09:34;;;;;;;6.53;2.72;;;20.10;25.10;;;;;;8457491;28;20027;-56
2021/04/08 18:13:35;;;;;;;7.50;2.93;;;20.10;25.10;;;;;;8460076;28;20036;-57
2021/04/08 18:17:36;;;;;;;6.88;2.90;;;20.20;25.10;;;;;;8466203;27;20089;-57
2021/04/08 18:21:36;;;;;;;5.23;2.93;;;20.10;25.10;;;;;;8460587;27;20032;-56
2021/04/08 18:25:37;;;;;;;6.90;2.40;;;20.10;25.20;;;;;;8463973;28;20032;-56
2021/04/08 18:29:38;;;;;;;4.50;2.60;;;20.20;25.20;;;;;;8461880;28;20484;-56
2021/04/08 18:33:38;;;;;;;8.00;2.93;;;20.20;25.20;;;;;;8467758;28;20269;-57
2021/04/08 18:37:40;;;;;;;6.50;2.83;;;20.20;25.20;;;;;;8463304;28;20407;-57
2021/04/08 18:41:40;;;;;;;;;;;20.20;25.20;;;;;;8444481;28;20059;-57
2021/04/08 18:45:41;;;;;;;3.97;2.40;;;20.20;25.20;;;;;;8463001;28;19908;-57
2021/04/08 18:49:42;;;;;;;7.35;2.17;;;20.20;25.20;;;;;;8467452;28;20028;-56
2021/04/08 18:53:43;;;;;;;6.57;2.30;;;20.20;25.20;;;;;;8461249;28;20092;-57
2021/04/08 18:57:43;;;;;;;6.47;2.60;;;20.20;25.20;;;;;;8462697;28;20070;-57
2021/04/08 19:01:44;;;;;;;4.77;2.50;;;20.20;25.20;;;;;;8462655;28;20376;-57
2021/04/08 19:05:46;;;;;;;4.93;2.20;;;20.20;25.20;;;;;;8461964;27;20036;-57
2021/04/08 19:09:46;;;;;;;4.43;2.42;;;20.20;25.20;;;;;;8501039;27;20036;-58
2021/04/08 19:13:47;;;;;;;5.90;2.30;;;20.20;25.20;;;;;;8470699;27;20031;-58
2021/04/08 19:17:48;;;;;;;5.80;2.33;;;20.20;25.20;;;;;;8460309;28;20035;-57
2021/04/08 19:21:48;;;;;;;4.05;2.45;;;20.20;25.20;;;;;;8461856;28;20053;-57
2021/04/08 19:25:49;;;;;;;3.17;2.17;;;20.20;25.20;;;;;;8465413;28;20517;-57
2021/04/08 19:29:49;;;;;;;3.07;2.10;;;20.20;25.20;;;;;;8459893;28;20032;-57
2021/04/08 19:33:50;;;;;;;4.50;2.20;;;20.30;25.30;;;;;;8479930;27;20046;-57
2021/04/08 19:37:51;;;;;;;5.00;2.13;;;20.30;25.20;;;;;;8485666;27;20039;-57
2021/04/08 19:41:52;;;;;;;4.88;1.75;;;20.30;25.30;;;;;;8464169;28;20119;-58
2021/04/08 19:45:53;;;;;;;5.97;2.30;;;20.30;25.30;;;;;;8461239;28;20036;-57
2021/04/08 19:49:53;;;;;;;5.20;2.13;;;20.30;25.20;;;;;;8460995;28;20270;-57
2021/04/08 19:53:54;;;;;;;3.90;1.80;;;20.30;25.20;;;;;;8459026;28;20398;-57
2021/04/08 19:57:56;;;;;;;3.70;1.80;;;20.30;25.20;;;;;;8460558;28;20090;-58
2021/04/08 20:01:56;;;;;;;4.15;2.10;;;20.30;25.30;;;;;;8465249;28;20479;-57
2021/04/08 20:05:57;;;;;;;3.57;1.87;;;20.30;25.20;;;;;;8459442;27;20180;-57
2021/04/08 20:09:57;;;;;;;3.10;1.80;;;20.30;25.20;;;;;;8460100;28;20039;-57
2021/04/08 20:13:58;;;;;;;4.57;2.20;;;20.30;25.20;;;;;;8466674;27;20031;-58
2021/04/08 20:17:58;;;;;;;4.43;2.30;;;20.30;25.20;;;;;;8496578;27;20046;-57
2021/04/08 20:21:59;;;;;;;5.23;1.80;;;20.30;25.20;;;;;;8463181;27;20390;-57
2021/04/08 20:25:59;;;;;;;2.77;1.77;;;20.30;25.20;;;;;;8459819;28;20064;-57
2021/04/08 20:30:01;;;;;;;3.33;1.90;;;20.30;25.20;;;;;;8457853;28;20027;-57
2021/04/08 20:34:02;;;;;;;2.63;1.52;;;20.30;25.20;;;;;;8460625;28;20077;-57
2021/04/08 20:38:02;;;;;;;3.57;1.60;;;20.30;25.20;;;;;;8462748;28;20134;-57
2021/04/08 20:42:03;;;;;;;4.07;1.67;;;20.20;25.10;;;;;;8457677;28;20074;-57
2021/04/08 20:46:04;;;;;;;4.53;1.85;;;20.20;25.10;;;;;;8458976;28;20046;-57
2021/04/08 20:50:06;;;;;;;3.03;1.77;;;20.20;25.20;;;;;;8459064;28;20028;-57
2021/04/08 20:54:06;;;;;;;2.72;1.95;;;20.20;25.10;;;;;;8461268;28;20474;-57
2021/04/08 20:58:07;;;;;;;3.30;1.63;;;20.10;25.10;;;;;;8458810;28;20047;-58
2021/04/08 21:02:08;;;;;;;3.87;2.03;;;20.10;25.10;;;;;;8459071;28;20043;-57